createdAt,value
2018-07-22T00:01:24.363Z,9.07
2018-07-22T00:04:26.626Z,8.10
2018-07-22T00:07:28.891Z,8.17
2018-07-22T00:10:31.133Z,8.27
2018-07-22T00:13:34.534Z,8.50
2018-07-22T00:16:37.082Z,8.27
2018-07-22T00:19:39.410Z,8.83
2018-07-22T00:22:41.656Z,7.40
2018-07-22T00:25:43.909Z,8.63
2018-07-22T00:28:46.221Z,8.00
2018-07-22T00:31:48.493Z,8.13
2018-07-22T00:34:50.718Z,8.00
2018-07-22T00:37:53.014Z,8.00
2018-07-22T00:40:55.278Z,9.53
2018-07-22T00:43:57.548Z,9.77
2018-07-22T00:46:59.838Z,8.10
2018-07-22T00:50:02.205Z,9.17
2018-07-22T00:53:06.438Z,8.50
2018-07-22T00:56:08.676Z,9.53
2018-07-22T00:59:10.979Z,9.33
2018-07-22T01:02:13.274Z,8.67
2018-07-22T01:05:15.493Z,8.90
2018-07-22T01:08:17.771Z,10.90
2018-07-22T01:11:20.079Z,9.70
2018-07-22T01:14:23.328Z,10.33
2018-07-22T01:17:26.546Z,10.70
2018-07-22T01:20:29.845Z,8.73
2018-07-22T01:23:32.120Z,9.27
2018-07-22T01:26:34.355Z,8.57
2018-07-22T01:29:37.589Z,8.90
2018-07-22T01:32:39.990Z,9.07
2018-07-22T01:35:42.208Z,8.30
2018-07-22T01:38:45.453Z,9.37
2018-07-22T01:41:47.743Z,11.40
2018-07-22T01:44:49.992Z,12.17
2018-07-22T01:47:52.242Z,12.20
2018-07-22T01:50:54.470Z,12.10
2018-07-22T01:53:56.706Z,13.20
2018-07-22T01:56:58.967Z,12.50
2018-07-22T02:00:01.258Z,13.80
2018-07-22T02:03:03.647Z,13.47
2018-07-22T02:06:05.979Z,14.60
2018-07-22T02:09:09.501Z,12.13
2018-07-22T02:12:12.789Z,14.47
2018-07-22T02:15:15.003Z,14.60
2018-07-22T02:18:17.354Z,13.63
2018-07-22T02:21:19.675Z,14.70
2018-07-22T02:24:21.993Z,13.73
2018-07-22T02:27:24.269Z,13.27
2018-07-22T02:30:26.485Z,13.37
2018-07-22T02:33:29.744Z,13.03
2018-07-22T02:36:32.011Z,13.83
2018-07-22T02:39:34.294Z,12.90
2018-07-22T02:42:36.580Z,12.60
2018-07-22T02:45:38.932Z,13.10
2018-07-22T02:48:41.183Z,13.47
2018-07-22T02:51:43.453Z,15.07
2018-07-22T02:54:45.714Z,14.07
2018-07-22T02:57:47.968Z,13.90
2018-07-22T03:00:50.237Z,15.00
2018-07-22T03:03:52.500Z,13.83
2018-07-22T03:06:55.745Z,16.77
2018-07-22T03:09:58.038Z,16.47
2018-07-22T03:13:00.261Z,17.13
2018-07-22T03:16:02.552Z,16.63
2018-07-22T03:19:04.818Z,18.03
2018-07-22T03:22:07.246Z,16.93
2018-07-22T03:25:09.598Z,17.47
2018-07-22T03:28:12.165Z,16.80
2018-07-22T03:31:14.642Z,17.70
2018-07-22T03:34:16.860Z,16.57
2018-07-22T03:37:19.293Z,16.03
2018-07-22T03:40:21.546Z,18.20
2018-07-22T03:43:23.784Z,17.40
2018-07-22T03:46:26.100Z,18.27
2018-07-22T03:49:28.377Z,17.47
2018-07-22T03:52:30.649Z,18.57
2018-07-22T03:55:32.894Z,18.83
2018-07-22T03:58:35.164Z,19.43
2018-07-22T04:01:37.585Z,20.20
2018-07-22T04:04:39.831Z,19.97
2018-07-22T04:07:42.062Z,20.87
2018-07-22T04:10:44.329Z,20.23
2018-07-22T04:13:46.653Z,21.33
2018-07-22T04:16:48.881Z,19.60
2018-07-22T04:19:51.146Z,20.73
2018-07-22T04:22:53.429Z,19.90
2018-07-22T04:25:55.755Z,20.70
2018-07-22T04:28:57.995Z,20.60
2018-07-22T04:32:00.305Z,19.67
2018-07-22T04:35:02.678Z,19.03
2018-07-22T04:38:05.295Z,19.33
2018-07-22T04:41:07.509Z,18.00
2018-07-22T04:44:09.767Z,19.47
2018-07-22T04:47:11.984Z,18.20
2018-07-22T04:50:14.249Z,17.70
2018-07-22T04:53:16.502Z,17.80
2018-07-22T04:56:18.802Z,18.07
2018-07-22T04:59:21.210Z,17.33
2018-07-22T05:02:23.687Z,16.07
2018-07-22T05:05:25.998Z,16.70
2018-07-22T05:08:28.344Z,15.70
2018-07-22T05:11:30.558Z,15.87
2018-07-22T05:14:32.801Z,16.50
2018-07-22T05:17:35.014Z,15.67
2018-07-22T05:20:37.247Z,15.23
2018-07-22T05:23:39.498Z,15.97
2018-07-22T05:26:41.733Z,16.53
2018-07-22T05:29:44.029Z,15.83
2018-07-22T05:32:46.312Z,15.27
2018-07-22T05:35:48.618Z,15.07
2018-07-22T05:38:50.853Z,15.47
2018-07-22T05:41:53.121Z,15.10
2018-07-22T05:44:55.326Z,15.47
2018-07-22T05:47:57.501Z,16.03
2018-07-22T05:50:59.821Z,15.93
2018-07-22T05:54:02.106Z,16.00
2018-07-22T05:57:05.181Z,16.20
2018-07-22T06:00:07.921Z,15.87
2018-07-22T06:03:10.137Z,16.20
2018-07-22T06:06:13.368Z,14.43
2018-07-22T06:09:15.609Z,15.13
2018-07-22T06:12:17.874Z,15.67
2018-07-22T06:15:20.426Z,15.37
2018-07-22T06:18:22.663Z,14.77
2018-07-22T06:21:25.026Z,15.17
2018-07-22T06:24:27.241Z,14.80
2018-07-22T06:27:29.500Z,15.03
2018-07-22T06:30:31.808Z,15.10
2018-07-22T06:33:34.158Z,14.83
2018-07-22T06:36:36.403Z,15.83
2018-07-22T06:39:38.701Z,14.33
2018-07-22T06:42:40.990Z,16.07
2018-07-22T06:45:43.362Z,16.17
2018-07-22T06:48:45.665Z,15.73
2018-07-22T06:51:48.090Z,15.60
2018-07-22T06:54:50.325Z,17.07
2018-07-22T06:57:52.678Z,16.67
2018-07-22T07:00:55.162Z,16.73
2018-07-22T07:03:57.518Z,18.63
2018-07-22T07:06:59.842Z,17.43
2018-07-22T07:10:02.224Z,16.67
2018-07-22T07:13:04.444Z,17.80
2018-07-22T07:16:06.674Z,16.37
2018-07-22T07:19:08.931Z,17.07
2018-07-22T07:22:11.202Z,15.73
2018-07-22T07:25:13.578Z,15.17
2018-07-22T07:28:15.835Z,16.37
2018-07-22T07:31:18.629Z,15.07
2018-07-22T07:34:20.888Z,15.10
2018-07-22T07:37:23.182Z,15.90
2018-07-22T07:40:25.475Z,14.87
2018-07-22T07:43:27.733Z,16.80
2018-07-22T07:46:29.963Z,17.53
2018-07-22T07:49:32.372Z,16.83
2018-07-22T07:52:34.669Z,16.80
2018-07-22T07:55:36.946Z,15.87
2018-07-22T07:58:39.337Z,16.50
2018-07-22T08:01:42.666Z,16.77
2018-07-22T08:04:44.915Z,18.27
2018-07-22T08:07:47.217Z,19.37
2018-07-22T08:10:49.537Z,18.40
2018-07-22T08:13:51.791Z,20.93
2018-07-22T08:16:54.028Z,18.80
2018-07-22T08:19:56.322Z,18.47
2018-07-22T08:22:58.561Z,18.30
2018-07-22T08:26:00.896Z,17.57
2018-07-22T08:29:25.735Z,15.50
2018-07-22T08:32:28.010Z,15.03
2018-07-22T08:35:30.261Z,14.47
2018-07-22T08:38:32.447Z,14.50
2018-07-22T08:41:34.751Z,16.57
2018-07-22T08:44:36.957Z,17.07
2018-07-22T08:47:39.167Z,14.73
2018-07-22T08:50:41.361Z,16.87
2018-07-22T08:53:44.834Z,15.90
2018-07-22T08:56:47.185Z,16.83
2018-07-22T08:59:49.454Z,16.73
2018-07-22T09:02:51.763Z,16.23
2018-07-22T09:05:54.033Z,15.63
2018-07-22T09:08:56.334Z,16.87
2018-07-22T09:11:58.577Z,16.27
2018-07-22T09:15:00.781Z,16.07
2018-07-22T09:18:04.059Z,15.00
2018-07-22T09:21:08.513Z,16.70
2018-07-22T09:24:10.731Z,16.23
2018-07-22T09:27:13.051Z,17.30
2018-07-22T09:30:15.237Z,16.63
2018-07-22T09:33:17.470Z,18.00
2018-07-22T09:36:19.847Z,17.60
2018-07-22T09:39:22.058Z,16.37
2018-07-22T09:42:25.074Z,15.87
2018-07-22T09:45:27.269Z,17.23
2018-07-22T09:48:33.853Z,17.47
2018-07-22T09:51:37.216Z,15.97
2018-07-22T09:54:40.514Z,16.57
2018-07-22T09:57:42.818Z,15.63
2018-07-22T10:00:50.622Z,16.03
2018-07-22T10:03:53.877Z,16.83
2018-07-22T10:06:56.073Z,17.23
2018-07-22T10:09:58.310Z,16.50
2018-07-22T10:13:00.633Z,17.80
2018-07-22T10:16:02.994Z,16.40
2018-07-22T10:19:06.357Z,15.47
2018-07-22T10:22:08.782Z,18.17
2018-07-22T10:25:11.086Z,16.87
2018-07-22T10:28:14.401Z,17.50
2018-07-22T10:31:16.654Z,16.97
2018-07-22T10:34:24.248Z,18.00
2018-07-22T10:37:26.801Z,16.00
2018-07-22T10:40:32.131Z,16.70
2018-07-22T10:43:35.465Z,14.83
2018-07-22T10:46:37.842Z,16.77
2018-07-22T10:49:40.114Z,15.00
2018-07-22T10:52:42.466Z,13.63
2018-07-22T10:55:46.778Z,15.70
2018-07-22T10:58:49.082Z,15.07
2018-07-22T11:01:51.451Z,16.87
2018-07-22T11:04:54.718Z,15.40
2018-07-22T11:07:57.023Z,15.13
2018-07-22T11:10:59.234Z,16.00
2018-07-22T11:14:03.686Z,15.70
2018-07-22T11:17:06.062Z,15.00
2018-07-22T11:20:08.364Z,15.80
2018-07-22T11:23:10.578Z,13.90
2018-07-22T11:26:13.851Z,15.87
2018-07-22T11:29:16.258Z,15.13
2018-07-22T11:32:19.611Z,16.13
2018-07-22T11:35:22.961Z,15.83
2018-07-22T11:38:26.303Z,15.30
2018-07-22T11:41:29.615Z,14.83
2018-07-22T11:44:32.846Z,14.23
2018-07-22T11:47:35.287Z,13.70
2018-07-22T11:50:43.279Z,13.17
2018-07-22T11:53:45.452Z,13.47
2018-07-22T11:56:52.746Z,13.13
2018-07-22T11:59:56.076Z,13.60
2018-07-22T12:02:59.286Z,12.83
2018-07-22T12:06:02.518Z,11.47
2018-07-22T12:09:07.105Z,12.10
2018-07-22T12:12:15.026Z,11.60
2018-07-22T12:15:17.276Z,10.70
2018-07-22T12:18:20.631Z,10.20
2018-07-22T12:21:24.946Z,11.47
2018-07-22T12:24:27.183Z,11.97
2018-07-22T12:27:29.441Z,10.90
2018-07-22T12:30:31.994Z,10.50
2018-07-22T12:33:35.324Z,10.53
2018-07-22T12:36:37.852Z,10.53
2018-07-22T12:39:40.241Z,9.90
2018-07-22T12:42:42.474Z,11.13
2018-07-22T12:45:44.726Z,9.70
2018-07-22T12:48:47.114Z,8.53
2018-07-22T12:51:50.309Z,9.03
2018-07-22T12:54:52.584Z,8.50
2018-07-22T12:58:00.616Z,9.37
2018-07-22T13:01:03.840Z,9.27
2018-07-22T13:04:08.199Z,8.07
2018-07-22T13:07:11.551Z,8.23
2018-07-22T13:10:13.744Z,7.77
2018-07-22T13:13:15.982Z,8.10
2018-07-22T13:16:18.242Z,7.67
2018-07-22T13:19:20.502Z,8.60
2018-07-22T13:22:22.817Z,8.10
2018-07-22T13:25:28.701Z,7.50
2018-07-22T13:28:31.125Z,8.40
2018-07-22T13:31:34.346Z,8.37
2018-07-22T13:34:37.653Z,8.23
2018-07-22T13:37:40.911Z,9.80
2018-07-22T13:40:43.131Z,10.50
2018-07-22T13:43:45.390Z,10.47
2018-07-22T13:46:47.607Z,9.73
2018-07-22T13:49:50.007Z,9.57
2018-07-22T13:52:52.304Z,9.60
2018-07-22T13:55:54.575Z,9.00
2018-07-22T13:58:56.805Z,9.13
2018-07-22T14:01:59.028Z,8.30
2018-07-22T14:05:01.402Z,8.50
2018-07-22T14:08:13.361Z,7.97
2018-07-22T14:11:15.615Z,10.90
2018-07-22T14:14:19.830Z,11.90
2018-07-22T14:17:27.067Z,10.73
2018-07-22T14:20:33.009Z,10.10
2018-07-22T14:23:35.228Z,11.00
2018-07-22T14:26:37.593Z,10.30
2018-07-22T14:29:39.891Z,9.63
2018-07-22T14:32:42.100Z,9.27
2018-07-22T14:35:44.403Z,8.87
2018-07-22T14:38:50.650Z,8.93
2018-07-22T14:41:52.933Z,9.20
2018-07-22T14:44:55.196Z,9.03
2018-07-22T14:47:57.513Z,9.57
2018-07-22T14:51:00.762Z,9.37
2018-07-22T14:54:03.062Z,9.10
2018-07-22T14:57:07.366Z,9.13
2018-07-22T15:00:10.017Z,8.47
2018-07-22T15:03:12.346Z,9.13
2018-07-22T15:06:14.572Z,8.60
2018-07-22T15:09:16.877Z,7.77
2018-07-22T15:12:21.205Z,8.83
2018-07-22T15:15:23.446Z,8.10
2018-07-22T15:18:25.712Z,8.60
2018-07-22T15:21:27.941Z,7.60
2018-07-22T15:24:30.173Z,7.77
2018-07-22T15:27:32.413Z,7.93
2018-07-22T15:30:35.781Z,7.33
2018-07-22T15:33:38.053Z,7.23
2018-07-22T15:36:41.301Z,7.83
2018-07-22T15:39:43.622Z,7.33
2018-07-22T15:42:45.946Z,7.87
2018-07-22T15:45:48.210Z,6.70
2018-07-22T15:48:50.446Z,5.20
2018-07-22T15:51:53.663Z,5.10
2018-07-22T15:54:55.943Z,5.50
2018-07-22T15:57:58.230Z,4.93
2018-07-22T16:01:00.489Z,5.43
2018-07-22T16:04:02.757Z,4.60
2018-07-22T16:07:05.310Z,5.33
2018-07-22T16:10:07.820Z,4.87
2018-07-22T16:13:10.028Z,5.17
2018-07-22T16:16:12.275Z,5.57
2018-07-22T16:19:15.581Z,5.60
2018-07-22T16:22:18.813Z,4.70
2018-07-22T16:25:21.141Z,4.90
2018-07-22T16:28:23.396Z,4.57
2018-07-22T16:31:25.753Z,4.40
2018-07-22T16:34:29.093Z,4.63
2018-07-22T16:37:31.519Z,4.93
2018-07-22T16:40:33.764Z,4.90
2018-07-22T16:43:36.223Z,4.53
2018-07-22T16:46:38.512Z,5.17
2018-07-22T16:49:40.840Z,4.90
2018-07-22T16:52:44.161Z,5.17
2018-07-22T16:55:49.741Z,5.30
2018-07-22T16:58:53.005Z,4.87
2018-07-22T17:01:55.256Z,4.93
2018-07-22T17:05:01.062Z,4.30
2018-07-22T17:08:03.425Z,4.10
2018-07-22T17:11:07.780Z,3.10
2018-07-22T17:14:10.084Z,3.73
2018-07-22T17:17:12.433Z,3.63
2018-07-22T17:20:15.810Z,3.80
2018-07-22T17:23:18.168Z,4.90
2018-07-22T17:26:22.510Z,4.43
2018-07-22T17:29:26.355Z,4.60
2018-07-22T17:32:32.410Z,5.17
2018-07-22T17:35:35.867Z,5.57
2018-07-22T17:38:38.200Z,6.93
2018-07-22T17:41:41.439Z,6.60
2018-07-22T17:44:43.870Z,8.60
2018-07-22T17:47:46.190Z,6.90
2018-07-22T17:50:48.431Z,8.33
2018-07-22T17:53:51.759Z,7.03
2018-07-22T17:56:55.031Z,6.90
2018-07-22T18:00:00.770Z,8.17
2018-07-22T18:03:25.556Z,6.53
2018-07-22T18:06:27.789Z,8.03
2018-07-22T18:09:31.057Z,9.77
2018-07-22T18:12:33.325Z,9.27
2018-07-22T18:15:35.557Z,10.03
2018-07-22T18:18:37.865Z,9.63
2018-07-22T18:21:41.137Z,6.83
2018-07-22T18:24:43.469Z,7.13
2018-07-22T18:27:46.764Z,7.13
2018-07-22T18:30:49.092Z,6.90
2018-07-22T18:33:52.371Z,6.80
2018-07-22T18:36:54.624Z,7.60
2018-07-22T18:39:56.943Z,6.50
2018-07-22T18:42:59.180Z,6.60
2018-07-22T18:46:03.630Z,6.40
2018-07-22T18:49:05.929Z,6.60
2018-07-22T18:52:09.132Z,6.20
2018-07-22T18:55:11.513Z,5.60
2018-07-22T18:58:13.857Z,5.67
2018-07-22T19:01:17.385Z,6.00
2018-07-22T19:04:19.686Z,6.43
2018-07-22T19:07:22.007Z,5.43
2018-07-22T19:10:24.258Z,6.47
2018-07-22T19:13:26.446Z,6.17
2018-07-22T19:16:29.643Z,5.83
2018-07-22T19:19:31.976Z,5.67
2018-07-22T19:22:34.224Z,5.77
2018-07-22T19:25:37.451Z,7.53
2018-07-22T19:28:39.745Z,5.63
2018-07-22T19:31:43.040Z,6.97
2018-07-22T19:34:48.748Z,7.27
2018-07-22T19:37:52.045Z,6.37
2018-07-22T19:40:55.453Z,6.80
2018-07-22T19:43:57.685Z,6.60
2018-07-22T19:46:59.992Z,6.67
2018-07-22T19:50:04.436Z,8.00
2018-07-22T19:53:06.682Z,7.20
2018-07-22T19:56:08.952Z,8.40
2018-07-22T19:59:12.346Z,7.17
2018-07-22T20:02:14.631Z,7.17
2018-07-22T20:05:20.705Z,7.03
2018-07-22T20:08:22.881Z,6.80
2018-07-22T20:11:25.142Z,7.23
2018-07-22T20:14:27.348Z,7.23
2018-07-22T20:17:29.722Z,7.73
2018-07-22T20:20:32.254Z,7.40
2018-07-22T20:23:36.661Z,7.23
2018-07-22T20:26:40.199Z,7.00
2018-07-22T20:29:42.812Z,7.30
2018-07-22T20:32:45.189Z,7.93
2018-07-22T20:35:47.642Z,7.57
2018-07-22T20:38:50.248Z,8.20
2018-07-22T20:41:52.582Z,7.10
2018-07-22T20:44:55.203Z,7.60
2018-07-22T20:47:58.706Z,7.30
2018-07-22T20:51:01.280Z,7.80
2018-07-22T20:54:03.753Z,8.33
2018-07-22T20:57:06.320Z,8.63
2018-07-22T21:00:08.820Z,8.37
2018-07-22T21:03:11.254Z,8.43
2018-07-22T21:06:14.728Z,8.40
2018-07-22T21:09:17.349Z,8.77
2018-07-22T21:12:40.519Z,9.17
2018-07-22T21:15:42.950Z,8.77
2018-07-22T21:18:45.390Z,8.53
2018-07-22T21:21:47.866Z,7.97
2018-07-22T21:24:50.160Z,8.43
2018-07-22T21:27:53.514Z,8.97
2018-07-22T21:30:55.962Z,8.37
2018-07-22T21:34:00.554Z,8.87
2018-07-22T21:37:02.927Z,8.63
2018-07-22T21:40:09.147Z,8.93
2018-07-22T21:43:11.666Z,8.90
2018-07-22T21:46:15.054Z,8.90
2018-07-22T21:49:17.617Z,9.30
2018-07-22T21:52:24.172Z,9.43
2018-07-22T21:55:28.592Z,8.70
2018-07-22T21:58:32.139Z,9.07
2018-07-22T22:01:35.617Z,9.40
2018-07-22T22:04:41.074Z,8.20
2018-07-22T22:07:43.439Z,8.13
2018-07-22T22:10:45.769Z,8.60
2018-07-22T22:13:48.177Z,8.50
2018-07-22T22:16:50.611Z,8.77
2018-07-22T22:19:54.040Z,9.50
2018-07-22T22:22:56.859Z,9.47
2018-07-22T22:26:00.515Z,9.27
2018-07-22T22:29:03.159Z,9.87
2018-07-22T22:32:06.649Z,9.63
2018-07-22T22:35:09.295Z,8.63
2018-07-22T22:38:13.828Z,8.57
2018-07-22T22:41:18.346Z,8.80
2018-07-22T22:44:20.811Z,8.70
2018-07-22T22:47:23.256Z,8.67
2018-07-22T22:50:25.727Z,8.47
2018-07-22T22:53:28.228Z,8.60
2018-07-22T22:56:34.873Z,9.00
2018-07-22T22:59:37.355Z,9.33
2018-07-22T23:02:42.969Z,9.10
2018-07-22T23:05:45.862Z,9.43
2018-07-22T23:08:48.280Z,8.83
2018-07-22T23:11:51.770Z,9.80
2018-07-22T23:14:55.300Z,9.53
2018-07-22T23:17:58.796Z,9.97
2018-07-22T23:21:01.378Z,10.63
2018-07-22T23:24:05.056Z,10.93
2018-07-22T23:27:08.638Z,10.17
2018-07-22T23:30:11.331Z,11.33
2018-07-22T23:33:14.981Z,10.67
2018-07-22T23:36:18.576Z,10.53
2018-07-22T23:39:24.320Z,10.13
2018-07-22T23:42:28.775Z,10.17
2018-07-22T23:45:31.208Z,9.63
2018-07-22T23:48:33.767Z,9.83
2018-07-22T23:51:37.368Z,10.07
2018-07-22T23:54:40.055Z,9.70
2018-07-22T23:57:42.538Z,10.17
